Time;durP1;ratioP1;P1;durP2;ratioP2;P2;SDS_P1;SDS_P2;PMS_P1;PMS_P2;Temp;Humidity;BMP_temperature;BMP_pressure;BME280_temperature;BME280_humidity;BME280_pressure;Samples;Min_cycle;Max_cycle;Signal;HPM_P1;HPM_P2
2021/05/07 00:01:10;;;;;;;7.47;3.85;;;8.90;66.70;;;;;;4979616;28;20023;-78
2021/05/07 00:03:37;;;;;;;7.28;3.55;;;8.90;67.00;;;;;;4998146;28;20023;-78
2021/05/07 00:06:04;;;;;;;8.60;3.85;;;8.80;67.20;;;;;;4997863;28;20022;-80
2021/05/07 00:08:36;;;;;;;5.85;4.15;;;8.70;67.20;;;;;;4998256;28;20366;-78
2021/05/07 00:11:19;;;;;;;8.35;3.92;;;8.80;67.70;;;;;;4997636;28;20049;-78
2021/05/07 00:13:48;;;;;;;5.68;3.80;;;8.70;67.40;;;;;;4980239;28;20022;-78
2021/05/07 00:16:15;;;;;;;5.80;3.50;;;8.70;67.60;;;;;;4997727;28;20129;-81
2021/05/07 00:18:41;;;;;;;7.07;3.40;;;8.70;67.90;;;;;;4980210;28;20030;-80
2021/05/07 00:21:08;;;;;;;5.35;3.20;;;8.60;67.30;;;;;;4998261;28;20058;-80
2021/05/07 00:23:35;;;;;;;7.18;4.13;;;8.50;66.80;;;;;;5005975;28;20022;-80
2021/05/07 00:26:01;;;;;;;5.45;3.60;;;8.50;66.60;;;;;;4977722;28;20035;-79
2021/05/07 00:28:27;;;;;;;7.72;3.70;;;8.40;67.20;;;;;;4991065;28;20492;-77
2021/05/07 00:30:53;;;;;;;6.38;3.58;;;8.40;67.40;;;;;;4996516;28;20034;-79
2021/05/07 00:33:18;;;;;;;7.68;3.83;;;8.40;67.00;;;;;;4988600;28;20025;-79
2021/05/07 00:35:44;;;;;;;6.43;3.55;;;8.40;67.20;;;;;;4996714;28;20110;-79
2021/05/07 00:38:10;;;;;;;6.80;3.83;;;8.40;67.40;;;;;;4994211;28;20072;-79
2021/05/07 00:40:36;;;;;;;7.25;3.90;;;8.40;68.00;;;;;;4997422;28;20534;-79
2021/05/07 00:43:02;;;;;;;6.97;3.90;;;8.40;68.40;;;;;;5000576;28;20022;-79
2021/05/07 00:45:29;;;;;;;7.72;3.85;;;8.30;67.90;;;;;;5001351;28;20026;-79
2021/05/07 00:48:04;;;;;;;7.47;3.78;;;8.30;67.30;;;;;;5001423;28;20048;-77
2021/05/07 00:50:35;;;;;;;5.80;3.88;;;8.20;66.70;;;;;;4998745;28;20026;-79
2021/05/07 00:53:02;;;;;;;9.10;3.90;;;8.20;66.90;;;;;;4997796;28;20054;-81
2021/05/07 00:55:29;;;;;;;6.82;3.70;;;8.20;67.50;;;;;;4980750;28;20073;-80
2021/05/07 00:57:56;;;;;;;6.38;3.72;;;8.20;67.20;;;;;;4980272;28;20041;-79
2021/05/07 01:00:26;;;;;;;7.10;3.70;;;8.20;67.30;;;;;;4993876;28;20022;-79
2021/05/07 01:02:53;;;;;;;7.45;3.97;;;8.10;66.70;;;;;;4998061;28;20110;-79
2021/05/07 01:05:20;;;;;;;6.82;3.90;;;8.10;66.50;;;;;;4983831;28;20041;-79
2021/05/07 01:07:47;;;;;;;7.20;4.13;;;8.10;66.60;;;;;;4988537;28;20138;-79
2021/05/07 01:10:14;;;;;;;7.25;3.85;;;8.10;66.90;;;;;;5000861;28;20029;-79
2021/05/07 01:12:42;;;;;;;5.28;3.47;;;8.10;66.40;;;;;;5001000;28;20033;-79
2021/05/07 01:15:22;;;;;;;8.15;3.55;;;8.10;66.20;;;;;;4991570;28;20541;-79
2021/05/07 01:17:56;;;;;;;6.43;3.90;;;8.10;66.10;;;;;;5001094;28;20022;-78
2021/05/07 01:20:25;;;;;;;7.88;4.43;;;8.00;66.10;;;;;;5000716;28;20031;-79
2021/05/07 01:22:56;;;;;;;6.13;3.58;;;8.00;66.50;;;;;;4987771;28;20022;-79
2021/05/07 01:25:25;;;;;;;7.18;4.30;;;8.00;66.70;;;;;;5001212;28;20386;-79
2021/05/07 01:28:00;;;;;;;6.60;3.80;;;8.00;66.30;;;;;;5000511;28;20018;-79
2021/05/07 01:30:29;;;;;;;6.43;3.75;;;7.90;66.40;;;;;;4988684;28;20058;-78
2021/05/07 01:32:55;;;;;;;6.85;4.03;;;7.90;66.00;;;;;;5000238;28;20077;-79
2021/05/07 01:35:29;;;;;;;6.18;3.95;;;7.90;66.00;;;;;;4999884;28;20033;-79
2021/05/07 01:37:58;;;;;;;6.35;3.70;;;7.80;67.00;;;;;;5000589;28;20058;-79
2021/05/07 01:40:27;;;;;;;6.95;3.92;;;7.80;66.80;;;;;;4999949;28;20038;-79
2021/05/07 01:42:53;;;;;;;8.00;4.25;;;7.80;66.90;;;;;;4987338;28;20018;-79
2021/05/07 01:45:22;;;;;;;6.85;3.70;;;7.80;66.60;;;;;;5000038;28;20026;-79
2021/05/07 01:47:49;;;;;;;7.07;3.67;;;7.70;66.20;;;;;;4982266;28;20026;-79
2021/05/07 01:50:18;;;;;;;6.53;3.72;;;7.70;66.30;;;;;;5000329;28;20484;-79
2021/05/07 01:52:44;;;;;;;6.55;3.53;;;7.70;66.00;;;;;;4999879;28;20465;-79
2021/05/07 01:55:15;;;;;;;7.38;3.42;;;7.70;65.90;;;;;;4997120;28;20130;-79
2021/05/07 01:57:41;;;;;;;5.72;3.55;;;7.70;66.00;;;;;;4999793;28;20440;-79
2021/05/07 02:00:15;;;;;;;5.85;3.42;;;7.60;66.20;;;;;;4999585;28;20034;-78
2021/05/07 02:02:42;;;;;;;6.68;3.90;;;7.70;66.00;;;;;;4993251;28;20102;-78
2021/05/07 02:05:09;;;;;;;6.90;4.10;;;7.70;66.70;;;;;;4996791;28;20106;-78
2021/05/07 02:07:35;;;;;;;8.05;4.25;;;7.70;66.30;;;;;;4996909;28;20073;-78
2021/05/07 02:10:05;;;;;;;6.97;4.00;;;7.60;66.30;;;;;;5000162;28;20141;-77
2021/05/07 02:12:31;;;;;;;6.70;3.70;;;7.60;66.20;;;;;;4981589;28;20091;-78
2021/05/07 02:14:56;;;;;;;7.20;3.70;;;7.60;66.10;;;;;;4999028;28;20485;-78
2021/05/07 02:17:23;;;;;;;7.03;4.68;;;7.60;65.90;;;;;;4982044;28;20504;-78
2021/05/07 02:19:48;;;;;;;7.80;3.60;;;7.60;65.60;;;;;;4981700;28;20050;-78
2021/05/07 02:22:14;;;;;;;6.20;3.42;;;7.60;65.90;;;;;;4999305;28;20452;-78
2021/05/07 02:24:40;;;;;;;6.63;3.47;;;7.50;65.60;;;;;;5007677;28;20396;-78
2021/05/07 02:27:06;;;;;;;4.95;3.05;;;7.50;65.40;;;;;;4997336;28;20054;-78
2021/05/07 02:29:32;;;;;;;5.78;3.63;;;7.50;65.40;;;;;;4999113;28;20042;-78
2021/05/07 02:31:57;;;;;;;5.60;3.22;;;7.40;65.20;;;;;;4998303;28;20027;-79
2021/05/07 02:34:23;;;;;;;5.45;3.22;;;7.40;65.50;;;;;;4998784;28;20094;-78
2021/05/07 02:36:49;;;;;;;5.85;3.53;;;7.40;65.60;;;;;;4999326;28;20026;-78
2021/05/07 02:39:16;;;;;;;4.95;3.25;;;7.30;65.50;;;;;;4998994;28;20027;-78
2021/05/07 02:41:43;;;;;;;5.47;3.42;;;7.30;65.50;;;;;;4981432;28;20019;-79
2021/05/07 02:44:09;;;;;;;6.07;3.13;;;7.30;65.60;;;;;;4981643;28;20160;-78
2021/05/07 02:46:36;;;;;;;6.20;3.28;;;7.20;65.60;;;;;;4999107;28;20014;-78
2021/05/07 02:49:04;;;;;;;5.63;3.10;;;7.20;65.70;;;;;;4998491;28;20023;-78
2021/05/07 02:51:30;;;;;;;6.75;3.60;;;7.20;65.80;;;;;;4998982;28;20026;-79
2021/05/07 02:53:57;;;;;;;6.70;3.60;;;7.20;65.70;;;;;;4998403;28;20031;-78
2021/05/07 02:56:23;;;;;;;5.05;3.40;;;7.10;65.70;;;;;;4978993;28;20061;-78
2021/05/07 02:58:49;;;;;;;5.40;3.25;;;7.10;66.30;;;;;;4997356;28;20030;-78
2021/05/07 03:01:15;;;;;;;5.65;3.33;;;7.10;65.80;;;;;;4981003;28;20022;-78
2021/05/07 03:03:41;;;;;;;6.47;3.70;;;7.10;65.70;;;;;;4998557;28;20393;-77
2021/05/07 03:06:07;;;;;;;6.30;3.40;;;7.00;65.90;;;;;;4998865;28;20018;-78
2021/05/07 03:08:33;;;;;;;5.65;3.65;;;7.00;65.80;;;;;;4998469;28;20041;-78
2021/05/07 03:10:59;;;;;;;6.00;3.67;;;7.00;65.70;;;;;;4997695;28;20027;-78
2021/05/07 03:13:25;;;;;;;6.15;3.55;;;7.00;65.80;;;;;;4998355;28;20396;-78
2021/05/07 03:15:51;;;;;;;7.55;3.80;;;7.00;66.20;;;;;;4998788;28;20046;-77
2021/05/07 03:18:18;;;;;;;5.47;3.42;;;6.90;65.90;;;;;;4997765;28;20030;-77
2021/05/07 03:20:45;;;;;;;6.25;3.20;;;6.90;65.70;;;;;;4998816;28;20026;-77
2021/05/07 03:23:11;;;;;;;6.35;4.10;;;6.90;65.90;;;;;;4997923;28;20018;-77
2021/05/07 03:25:38;;;;;;;6.75;3.10;;;6.80;65.80;;;;;;4998253;28;20018;-77
2021/05/07 03:28:05;;;;;;;6.53;3.50;;;6.80;66.20;;;;;;4980272;28;20043;-78
2021/05/07 03:30:34;;;;;;;7.15;3.70;;;6.80;65.80;;;;;;4977309;28;20074;-78
2021/05/07 03:33:01;;;;;;;5.50;3.35;;;6.70;65.70;;;;;;4993254;28;20034;-78
2021/05/07 03:35:27;;;;;;;8.00;4.18;;;6.70;66.10;;;;;;4998191;28;20096;-78
2021/05/07 03:37:53;;;;;;;5.28;3.42;;;6.70;66.00;;;;;;4997820;28;20042;-78
2021/05/07 03:40:19;;;;;;;5.72;3.50;;;6.70;66.00;;;;;;4998281;28;20022;-78
2021/05/07 03:42:45;;;;;;;7.03;3.90;;;6.70;66.00;;;;;;4997858;28;20032;-78
2021/05/07 03:45:13;;;;;;;7.07;4.00;;;6.70;66.40;;;;;;4967577;28;20050;-78
2021/05/07 03:47:39;;;;;;;7.18;3.58;;;6.60;66.10;;;;;;4998281;28;20031;-78
2021/05/07 03:50:06;;;;;;;6.15;3.40;;;6.60;65.90;;;;;;5001855;28;20081;-79
2021/05/07 03:52:32;;;;;;;6.10;3.60;;;6.60;66.20;;;;;;5000036;28;20041;-78
2021/05/07 03:54:58;;;;;;;6.43;3.88;;;6.60;66.00;;;;;;4979781;28;20034;-78
2021/05/07 03:57:25;;;;;;;8.38;3.80;;;6.60;66.00;;;;;;4997975;28;20036;-78
2021/05/07 03:59:51;;;;;;;6.70;4.60;;;6.60;66.00;;;;;;4997657;28;20026;-78
2021/05/07 04:02:17;;;;;;;5.53;3.50;;;6.50;65.90;;;;;;4997281;28;20034;-77
2021/05/07 04:04:44;;;;;;;8.38;3.90;;;6.50;65.70;;;;;;4993166;28;20085;-78
2021/05/07 04:07:11;;;;;;;6.78;3.67;;;6.50;65.80;;;;;;4992727;28;20034;-78
2021/05/07 04:09:40;;;;;;;5.35;3.67;;;6.50;65.90;;;;;;4997757;28;20033;-78
2021/05/07 04:13:30;;;;;;;7.65;4.20;;;6.40;65.80;;;;;;4996875;28;20113;-78
2021/05/07 04:14:55;;;;;;;7.00;3.80;;;6.40;65.80;;;;;;4994817;28;20433;-78
2021/05/07 04:17:21;;;;;;;7.25;4.00;;;6.40;66.10;;;;;;4982576;28;20093;-78
2021/05/07 04:19:46;;;;;;;5.75;3.60;;;6.30;66.10;;;;;;5001687;28;20038;-78
2021/05/07 04:22:12;;;;;;;6.05;3.88;;;6.40;66.10;;;;;;5001677;28;20076;-78
2021/05/07 04:24:38;;;;;;;6.03;3.20;;;6.40;66.10;;;;;;5006295;28;20030;-78
2021/05/07 04:27:04;;;;;;;6.13;3.60;;;6.40;66.10;;;;;;5000344;28;20035;-78
2021/05/07 04:29:30;;;;;;;7.35;3.35;;;6.40;66.00;;;;;;5001595;28;20025;-77
2021/05/07 04:31:57;;;;;;;5.47;3.17;;;6.40;65.80;;;;;;4997335;28;20015;-78
2021/05/07 04:34:23;;;;;;;4.88;3.10;;;6.30;65.80;;;;;;4980686;28;20049;-78
2021/05/07 04:36:49;;;;;;;5.03;3.10;;;6.30;65.80;;;;;;5001398;28;20031;-78
2021/05/07 04:39:15;;;;;;;5.88;3.45;;;6.20;65.60;;;;;;4982983;28;20058;-79
2021/05/07 04:41:41;;;;;;;5.90;3.42;;;6.10;65.90;;;;;;5001424;28;20065;-78
2021/05/07 04:44:07;;;;;;;6.53;3.83;;;6.10;65.90;;;;;;4970876;28;20034;-78
2021/05/07 04:46:32;;;;;;;7.00;3.05;;;6.00;66.00;;;;;;5001504;28;20054;-78
2021/05/07 04:48:58;;;;;;;6.22;3.35;;;6.00;66.00;;;;;;4983865;28;20521;-78
2021/05/07 04:51:24;;;;;;;6.20;3.42;;;6.00;66.30;;;;;;4983798;28;20026;-79
2021/05/07 04:53:50;;;;;;;7.07;4.05;;;6.10;66.20;;;;;;5000713;28;20018;-78
2021/05/07 04:56:16;;;;;;;6.32;3.83;;;6.10;66.10;;;;;;4998539;28;20497;-78
2021/05/07 04:58:41;;;;;;;8.80;4.30;;;6.10;65.90;;;;;;5000166;28;20041;-77
2021/05/07 05:01:07;;;;;;;6.00;3.83;;;6.00;65.80;;;;;;4998988;28;20408;-78
2021/05/07 05:03:33;;;;;;;5.43;3.45;;;6.10;66.00;;;;;;4982765;28;20035;-78
2021/05/07 05:05:59;;;;;;;7.18;3.58;;;6.00;65.80;;;;;;5000038;28;20057;-78
2021/05/07 05:08:25;;;;;;;5.22;3.25;;;6.00;65.60;;;;;;5000902;28;20405;-80
2021/05/07 05:10:57;;;;;;;5.43;3.40;;;5.90;66.00;;;;;;5000394;28;20109;-80
2021/05/07 05:13:24;;;;;;;6.32;3.60;;;5.90;65.90;;;;;;4990119;28;20040;-79
2021/05/07 05:15:51;;;;;;;5.70;3.80;;;5.90;66.00;;;;;;4998401;28;20515;-79
2021/05/07 05:18:43;;;;;;;6.78;3.55;;;5.80;65.80;;;;;;5000523;28;20030;-79
2021/05/07 05:21:09;;;;;;;4.85;3.42;;;5.80;66.00;;;;;;4996564;28;20034;-78
2021/05/07 05:23:38;;;;;;;5.75;3.40;;;5.90;66.20;;;;;;4982844;28;20057;-78
2021/05/07 05:26:04;;;;;;;6.35;3.83;;;5.90;66.30;;;;;;4999677;28;20499;-76
2021/05/07 05:28:30;;;;;;;6.20;3.60;;;5.90;66.20;;;;;;4996146;28;20116;-76
2021/05/07 05:30:56;;;;;;;9.88;3.65;;;6.00;66.60;;;;;;4994554;28;20405;-75
2021/05/07 05:33:22;;;;;;;6.80;4.13;;;6.00;66.40;;;;;;4995888;28;20034;-74
2021/05/07 05:35:48;;;;;;;5.95;3.70;;;6.10;66.20;;;;;;4994389;28;20038;-79
2021/05/07 05:38:14;;;;;;;6.18;3.55;;;6.20;66.20;;;;;;4979454;28;20038;-76
2021/05/07 05:40:41;;;;;;;7.88;3.95;;;6.20;65.90;;;;;;4979799;28;20358;-76
2021/05/07 05:43:07;;;;;;;7.13;3.95;;;6.20;66.00;;;;;;4982842;28;20041;-79
2021/05/07 05:45:33;;;;;;;6.30;4.20;;;6.20;66.20;;;;;;5000017;28;20023;-78
2021/05/07 05:48:04;;;;;;;5.72;3.83;;;6.30;66.10;;;;;;4979000;28;20022;-84
2021/05/07 05:50:40;;;;;;;7.47;4.25;;;6.30;66.10;;;;;;5003656;28;20389;-79
2021/05/07 05:53:06;;;;;;;7.85;4.15;;;6.30;66.30;;;;;;4990182;28;20544;-83
2021/05/07 05:55:32;;;;;;;7.57;4.75;;;6.40;66.20;;;;;;5000209;28;20046;-89
2021/05/07 05:57:59;;;;;;;7.15;4.50;;;6.40;66.20;;;;;;4980864;28;20118;-77
2021/05/07 06:00:25;;;;;;;6.72;4.53;;;6.40;66.20;;;;;;4995225;28;20094;-77
2021/05/07 06:02:51;;;;;;;6.72;4.50;;;6.50;66.40;;;;;;4986096;28;20030;-77
2021/05/07 06:05:17;;;;;;;7.13;4.35;;;6.50;66.80;;;;;;4998853;28;20018;-77
2021/05/07 06:07:43;;;;;;;6.78;4.20;;;6.50;66.30;;;;;;5000117;28;20061;-77
2021/05/07 06:10:14;;;;;;;7.32;4.28;;;6.50;66.60;;;;;;4977046;28;20026;-78
2021/05/07 06:12:40;;;;;;;6.10;3.83;;;6.60;66.80;;;;;;4995606;28;20429;-78
2021/05/07 06:15:07;;;;;;;7.57;4.65;;;6.70;66.80;;;;;;4998546;28;20050;-76
2021/05/07 06:17:34;;;;;;;7.28;3.95;;;6.70;66.70;;;;;;4982258;28;20039;-79
2021/05/07 06:20:03;;;;;;;9.27;5.20;;;6.80;66.90;;;;;;4999085;28;20481;-75
2021/05/07 06:22:30;;;;;;;14.15;8.70;;;6.90;66.80;;;;;;4982966;28;20551;-76
2021/05/07 06:24:56;;;;;;;33.42;20.88;;;7.00;66.80;;;;;;5003789;28;20051;-76
2021/05/07 06:27:22;;;;;;;18.58;10.75;;;7.10;67.70;;;;;;4999359;28;20034;-78
2021/05/07 06:29:48;;;;;;;12.77;7.57;;;7.20;68.30;;;;;;4995740;28;20037;-79
2021/05/07 06:32:14;;;;;;;9.95;6.57;;;7.30;68.20;;;;;;4993917;28;20101;-79
2021/05/07 06:34:40;;;;;;;9.88;5.78;;;7.40;67.70;;;;;;4999265;28;20027;-78
2021/05/07 06:37:06;;;;;;;6.78;5.03;;;7.50;67.60;;;;;;4999128;28;20034;-79
2021/05/07 06:39:32;;;;;;;6.60;4.63;;;7.60;67.20;;;;;;4998547;28;20044;-78
2021/05/07 06:41:58;;;;;;;8.73;4.22;;;7.80;67.30;;;;;;4999018;28;20610;-78
2021/05/07 06:44:26;;;;;;;6.75;3.75;;;7.90;67.20;;;;;;4998848;28;20037;-79
2021/05/07 06:46:52;;;;;;;7.22;3.75;;;8.10;67.20;;;;;;4999009;28;20101;-78
2021/05/07 06:49:19;;;;;;;6.38;3.30;;;8.30;67.10;;;;;;4998881;28;20019;-78
2021/05/07 06:51:45;;;;;;;6.80;3.60;;;8.50;67.40;;;;;;4985682;28;20116;-78
2021/05/07 06:54:11;;;;;;;6.88;2.97;;;8.70;67.70;;;;;;4998740;28;20481;-78
2021/05/07 06:56:37;;;;;;;5.82;3.00;;;9.00;67.80;;;;;;4998208;28;20109;-79
2021/05/07 06:59:06;;;;;;;6.35;3.03;;;9.30;68.10;;;;;;4998575;28;20432;-76
2021/05/07 07:01:32;;;;;;;6.68;3.25;;;9.60;68.40;;;;;;4998417;28;20054;-76
2021/05/07 07:03:58;;;;;;;6.70;2.80;;;10.00;69.30;;;;;;4998191;28;20019;-76
2021/05/07 07:06:24;;;;;;;6.05;3.05;;;10.40;69.20;;;;;;4980955;28;20041;-76
2021/05/07 07:08:51;;;;;;;5.97;2.78;;;10.80;69.20;;;;;;4981256;28;20121;-76
2021/05/07 07:11:17;;;;;;;5.57;3.05;;;11.20;68.20;;;;;;4997902;28;20443;-75
2021/05/07 07:13:43;;;;;;;6.18;2.72;;;11.70;65.80;;;;;;4998859;28;20022;-76
2021/05/07 07:16:09;;;;;;;8.00;2.90;;;12.00;65.30;;;;;;4998122;28;20068;-76
2021/05/07 07:18:35;;;;;;;6.22;2.92;;;12.40;65.80;;;;;;4998569;28;20022;-75
2021/05/07 07:21:01;;;;;;;6.45;2.72;;;12.80;66.00;;;;;;4998094;28;20053;-75
2021/05/07 07:23:27;;;;;;;6.43;2.72;;;13.20;65.10;;;;;;4989556;28;20018;-75
2021/05/07 07:25:53;;;;;;;7.82;2.83;;;13.60;64.00;;;;;;4980756;28;20389;-75
2021/05/07 07:28:19;;;;;;;6.63;2.30;;;13.90;63.00;;;;;;4998187;28;20027;-75
2021/05/07 07:30:46;;;;;;;7.85;2.97;;;14.30;62.10;;;;;;4997024;28;20026;-75
2021/05/07 07:33:11;;;;;;;6.97;2.42;;;14.60;61.50;;;;;;4997525;28;20133;-75
2021/05/07 07:35:38;;;;;;;7.63;3.10;;;14.90;61.60;;;;;;4997792;28;20091;-76
2021/05/07 07:38:04;;;;;;;6.32;2.63;;;15.10;62.00;;;;;;4997604;28;20477;-75
2021/05/07 07:40:30;;;;;;;8.73;2.78;;;15.40;61.80;;;;;;4997429;28;20064;-76
2021/05/07 07:42:56;;;;;;;6.93;2.45;;;15.50;61.90;;;;;;4997449;28;20026;-75
2021/05/07 07:45:22;;;;;;;6.40;2.78;;;15.70;63.00;;;;;;4997428;28;20050;-75
2021/05/07 07:47:47;;;;;;;5.97;2.60;;;15.90;61.80;;;;;;4997432;28;20053;-75
2021/05/07 07:50:13;;;;;;;5.45;3.03;;;16.20;61.70;;;;;;4992706;28;20029;-75
2021/05/07 07:52:39;;;;;;;6.72;2.70;;;16.40;62.00;;;;;;4989905;28;20037;-75
2021/05/07 07:55:07;;;;;;;5.55;2.15;;;16.60;61.90;;;;;;4997205;28;20086;-75
2021/05/07 07:57:32;;;;;;;5.85;2.42;;;16.90;62.10;;;;;;4997397;28;20041;-75
2021/05/07 07:59:59;;;;;;;5.20;2.67;;;17.30;61.70;;;;;;4997225;28;20026;-75
2021/05/07 08:02:29;;;;;;;4.90;2.70;;;17.60;61.20;;;;;;4997574;28;20025;-75
2021/05/07 08:04:55;;;;;;;7.88;2.50;;;17.80;61.10;;;;;;4968028;28;20029;-75
2021/05/07 08:07:21;;;;;;;5.80;2.42;;;18.10;60.70;;;;;;4997475;28;20022;-75
2021/05/07 08:09:47;;;;;;;15.60;9.63;;;18.40;61.10;;;;;;4997561;28;20038;-76
2021/05/07 08:12:13;;;;;;;8.43;4.75;;;18.70;60.20;;;;;;4996946;28;20018;-77
2021/05/07 08:14:40;;;;;;;6.28;3.10;;;18.90;59.80;;;;;;4997238;28;20036;-74
2021/05/07 08:17:06;;;;;;;6.88;3.00;;;19.10;57.90;;;;;;4995052;28;20125;-74
2021/05/07 08:19:32;;;;;;;4.30;2.20;;;19.30;59.90;;;;;;4997871;28;20034;-76
2021/05/07 08:21:58;;;;;;;6.05;2.30;;;19.50;59.20;;;;;;4997350;28;20042;-76
2021/05/07 08:24:24;;;;;;;4.93;2.10;;;19.70;58.50;;;;;;5006187;28;20101;-76
2021/05/07 08:26:51;;;;;;;6.30;2.50;;;19.90;59.00;;;;;;4996899;28;20034;-74
2021/05/07 08:29:17;;;;;;;4.85;2.10;;;20.10;59.00;;;;;;4997254;28;20068;-73
2021/05/07 08:31:45;;;;;;;6.05;2.28;;;20.30;59.10;;;;;;4997368;28;20033;-74
2021/05/07 08:34:11;;;;;;;5.30;2.35;;;20.60;58.50;;;;;;4997499;28;20023;-73
2021/05/07 08:36:37;;;;;;;5.82;2.15;;;20.80;57.70;;;;;;4979928;28;20543;-74
2021/05/07 08:39:03;;;;;;;5.50;2.40;;;21.00;56.40;;;;;;4979772;28;20038;-74
2021/05/07 08:41:29;;;;;;;7.05;2.33;;;21.20;56.90;;;;;;4996899;28;20023;-74
2021/05/07 08:43:55;;;;;;;6.80;2.03;;;21.40;57.70;;;;;;4997136;28;20033;-74
2021/05/07 08:46:21;;;;;;;5.78;2.03;;;21.70;58.10;;;;;;4996719;28;20101;-73
2021/05/07 08:48:48;;;;;;;7.22;2.35;;;22.00;56.60;;;;;;4997329;28;20069;-73
2021/05/07 08:51:14;;;;;;;4.72;1.73;;;22.20;56.40;;;;;;4984193;28;20054;-74
2021/05/07 08:53:40;;;;;;;5.15;2.10;;;22.30;52.70;;;;;;4997228;28;20749;-73
2021/05/07 08:56:07;;;;;;;5.60;2.03;;;22.30;52.30;;;;;;4996796;28;20030;-73
2021/05/07 08:58:34;;;;;;;4.60;1.90;;;22.20;53.10;;;;;;4997234;28;20031;-73
2021/05/07 09:01:00;;;;;;;5.20;1.95;;;22.20;54.70;;;;;;4996931;28;20018;-73
2021/05/07 09:03:41;;;;;;;5.82;1.95;;;22.20;54.30;;;;;;4999297;28;20080;-74
2021/05/07 09:06:22;;;;;;;4.38;1.52;;;22.30;53.90;;;;;;5000230;28;20022;-73
2021/05/07 09:08:49;;;;;;;7.75;2.30;;;22.20;52.80;;;;;;5000715;28;20370;-74
2021/05/07 09:11:17;;;;;;;7.07;1.85;;;22.10;52.50;;;;;;5000105;28;20026;-74
2021/05/07 09:13:43;;;;;;;5.78;1.67;;;21.90;51.40;;;;;;5001019;28;20784;-74
2021/05/07 09:16:10;;;;;;;4.63;1.92;;;21.50;50.20;;;;;;5000502;28;20064;-74
2021/05/07 09:18:45;;;;;;;4.43;1.80;;;21.10;50.30;;;;;;5000638;28;20568;-74
2021/05/07 09:21:12;;;;;;;5.32;1.73;;;20.70;50.40;;;;;;4989118;28;20019;-74
2021/05/07 09:23:39;;;;;;;4.57;1.60;;;20.40;51.00;;;;;;5008992;28;20026;-74
2021/05/07 09:26:05;;;;;;;5.03;1.65;;;20.00;51.00;;;;;;5000671;28;20037;-74
2021/05/07 09:28:31;;;;;;;4.97;1.73;;;19.70;51.40;;;;;;5000611;28;20022;-76
2021/05/07 09:31:20;;;;;;;5.63;2.25;;;19.50;51.70;;;;;;5000269;28;20396;-76
2021/05/07 09:33:48;;;;;;;4.65;1.60;;;19.60;52.70;;;;;;5000233;28;20080;-76
2021/05/07 09:36:26;;;;;;;4.40;1.63;;;19.90;53.60;;;;;;4993866;28;20057;-76
2021/05/07 09:38:53;;;;;;;6.15;1.88;;;20.30;52.00;;;;;;4970713;28;20057;-76
2021/05/07 09:41:19;;;;;;;5.35;1.63;;;20.70;51.60;;;;;;5000337;28;20037;-74
2021/05/07 09:43:46;;;;;;;6.50;2.20;;;21.30;52.10;;;;;;4999576;28;20481;-74
2021/05/07 09:46:12;;;;;;;4.93;1.40;;;21.90;52.40;;;;;;4982296;28;20489;-73
2021/05/07 09:48:42;;;;;;;3.55;1.45;;;22.20;49.50;;;;;;5000313;28;20041;-74
2021/05/07 09:51:12;;;;;;;5.28;1.48;;;22.60;51.50;;;;;;4995848;28;20027;-74
2021/05/07 09:53:39;;;;;;;3.65;1.27;;;22.90;47.50;;;;;;4987946;28;20026;-74
2021/05/07 09:56:13;;;;;;;4.85;1.50;;;22.90;48.10;;;;;;4999911;28;20036;-73
2021/05/07 09:58:39;;;;;;;4.75;1.55;;;23.10;47.80;;;;;;5000166;28;20085;-74
2021/05/07 10:01:06;;;;;;;3.20;1.30;;;23.60;48.20;;;;;;4999528;28;20026;-74
2021/05/07 10:03:33;;;;;;;4.80;1.83;;;24.10;46.40;;;;;;4999409;28;20018;-74
2021/05/07 10:06:02;;;;;;;5.15;1.58;;;24.00;44.80;;;;;;4992503;28;20049;-74
2021/05/07 10:08:29;;;;;;;3.58;1.17;;;23.80;44.50;;;;;;4994203;28;20500;-74
2021/05/07 10:10:59;;;;;;;4.65;1.30;;;23.50;44.40;;;;;;4998835;28;20683;-74
2021/05/07 10:13:27;;;;;;;5.25;1.50;;;23.20;45.10;;;;;;4998194;28;20019;-74
2021/05/07 10:16:04;;;;;;;4.72;1.30;;;22.80;43.60;;;;;;4995989;28;20505;-74
2021/05/07 10:18:32;;;;;;;4.20;1.75;;;22.40;44.00;;;;;;4997514;28;20030;-73
2021/05/07 10:21:00;;;;;;;6.00;1.90;;;22.10;42.80;;;;;;4998242;28;20030;-74
2021/05/07 10:23:26;;;;;;;5.15;1.80;;;22.20;45.60;;;;;;5007527;28;20053;-74
2021/05/07 10:26:09;;;;;;;4.47;1.80;;;22.30;44.20;;;;;;4986156;28;20026;-74
2021/05/07 10:28:49;;;;;;;4.28;1.65;;;22.30;42.90;;;;;;4999272;28;20056;-76
2021/05/07 10:31:16;;;;;;;4.07;1.80;;;22.20;42.90;;;;;;4998972;28;20030;-76
2021/05/07 10:34:01;;;;;;;4.38;1.63;;;21.90;41.70;;;;;;4999368;28;20033;-76
2021/05/07 10:36:43;;;;;;;4.85;1.90;;;21.80;42.80;;;;;;4999490;28;20081;-73
2021/05/07 10:39:35;;;;;;;;;;;22.40;46.00;;;;;;4999514;28;20026;-74
2021/05/07 10:42:02;;;;;;;4.82;1.40;;;23.40;47.00;;;;;;4984702;28;19975;-74
2021/05/07 10:44:39;;;;;;;5.22;2.80;;;24.80;40.90;;;;;;4998559;28;20042;-74
2021/05/07 10:47:07;;;;;;;5.07;3.00;;;25.70;41.10;;;;;;4998997;28;20428;-74
2021/05/07 10:49:37;;;;;;;3.55;1.58;;;26.60;40.40;;;;;;4980490;28;20026;-75
2021/05/07 10:52:08;;;;;;;3.65;1.17;;;27.30;40.30;;;;;;4986893;28;20018;-73
2021/05/07 10:54:38;;;;;;;4.57;1.27;;;27.90;43.00;;;;;;4998807;28;20040;-73
2021/05/07 10:57:16;;;;;;;6.30;3.50;;;28.50;44.70;;;;;;4998474;28;20034;-75
2021/05/07 11:00:15;;;;;;;5.35;2.60;;;29.10;41.80;;;;;;4981132;28;20022;-72
2021/05/07 11:02:51;;;;;;;3.03;1.40;;;29.60;39.50;;;;;;4981402;28;20473;-74
2021/05/07 11:05:45;;;;;;;2.67;1.17;;;30.10;40.40;;;;;;4981163;28;20121;-74
2021/05/07 11:08:11;;;;;;;4.88;1.80;;;30.60;45.50;;;;;;4987034;28;20034;-74
2021/05/07 11:10:37;;;;;;;4.25;1.60;;;31.10;36.90;;;;;;4980805;28;20092;-74
2021/05/07 11:13:04;;;;;;;4.55;1.90;;;31.40;38.60;;;;;;4998069;28;20049;-76
2021/05/07 11:15:30;;;;;;;4.20;1.88;;;31.60;40.20;;;;;;4998360;28;20034;-76
2021/05/07 11:18:09;;;;;;;3.45;1.60;;;31.60;41.30;;;;;;4981196;28;20392;-74
2021/05/07 11:20:37;;;;;;;8.65;6.25;;;31.70;40.10;;;;;;4997739;28;20488;-74
2021/05/07 11:23:05;;;;;;;5.10;3.08;;;31.80;39.60;;;;;;5003473;28;20030;-75
2021/05/07 11:25:34;;;;;;;6.75;4.55;;;31.80;38.50;;;;;;4999716;28;20023;-76
2021/05/07 11:28:18;;;;;;;3.55;1.42;;;31.40;36.30;;;;;;4980496;28;20030;-71
2021/05/07 11:30:55;;;;;;;23.92;6.32;;;30.80;37.60;;;;;;4986234;28;20030;-73
2021/05/07 11:33:25;;;;;;;28.45;7.75;;;30.70;37.90;;;;;;4997931;28;20022;-72
2021/05/07 11:36:20;;;;;;;22.17;6.65;;;30.70;36.80;;;;;;4998123;28;20433;-72
2021/05/07 11:38:46;;;;;;;5.18;1.80;;;30.70;37.00;;;;;;4973224;28;20034;-73
2021/05/07 11:41:23;;;;;;;5.68;1.50;;;30.70;34.60;;;;;;4997708;28;20024;-73
2021/05/07 11:43:50;;;;;;;4.30;1.55;;;30.70;33.90;;;;;;4998008;28;20507;-73
2021/05/07 11:46:17;;;;;;;4.15;1.42;;;30.50;33.50;;;;;;4980663;28;20026;-72
2021/05/07 11:48:48;;;;;;;13.68;2.97;;;30.30;33.70;;;;;;4997799;28;20026;-72
2021/05/07 11:51:14;;;;;;;3.78;1.85;;;30.00;36.20;;;;;;4984783;28;20022;-72
2021/05/07 11:53:41;;;;;;;4.63;1.60;;;29.80;35.30;;;;;;4997386;28;20046;-72
2021/05/07 11:56:21;;;;;;;3.28;1.20;;;29.40;35.90;;;;;;4997944;28;20037;-73
2021/05/07 11:58:50;;;;;;;4.10;1.30;;;29.00;35.60;;;;;;4997870;28;20452;-72
2021/05/07 12:01:17;;;;;;;3.08;1.52;;;28.70;34.50;;;;;;4997660;28;20138;-72
2021/05/07 12:03:43;;;;;;;2.63;1.10;;;28.40;33.90;;;;;;4997883;28;20088;-72
2021/05/07 12:06:20;;;;;;;4.53;1.30;;;28.10;36.00;;;;;;4997975;28;20046;-72
2021/05/07 12:08:50;;;;;;;3.50;1.30;;;27.80;36.60;;;;;;4998000;28;20031;-73
2021/05/07 12:11:17;;;;;;;6.07;1.70;;;27.40;36.40;;;;;;4997213;28;20046;-72
2021/05/07 12:13:44;;;;;;;3.65;1.67;;;27.00;36.70;;;;;;4994294;28;20026;-73
2021/05/07 12:16:10;;;;;;;5.20;1.63;;;26.60;35.70;;;;;;4996301;28;20056;-73
2021/05/07 12:18:52;;;;;;;7.70;2.13;;;26.00;35.30;;;;;;4996964;28;20113;-73
2021/05/07 12:21:19;;;;;;;4.25;1.40;;;25.40;35.30;;;;;;4986670;28;20046;-74
2021/05/07 12:23:47;;;;;;;5.18;1.50;;;24.90;36.40;;;;;;5006090;28;20141;-73
2021/05/07 12:26:15;;;;;;;4.10;1.50;;;24.40;37.10;;;;;;4997330;28;20065;-73
2021/05/07 12:28:52;;;;;;;4.40;1.58;;;24.00;38.70;;;;;;4997267;28;20424;-73
2021/05/07 12:31:18;;;;;;;4.88;1.42;;;23.80;38.60;;;;;;4997210;28;20114;-73
2021/05/07 12:33:44;;;;;;;4.95;1.48;;;23.60;38.10;;;;;;4996979;28;20050;-72
2021/05/07 12:36:16;;;;;;;4.35;1.40;;;23.30;38.00;;;;;;4997334;28;20037;-73
2021/05/07 12:38:43;;;;;;;4.30;1.50;;;23.10;39.70;;;;;;4999806;28;20030;-73
2021/05/07 12:41:16;;;;;;;3.15;1.20;;;22.90;38.80;;;;;;5000465;28;20461;-73
2021/05/07 12:43:44;;;;;;;4.88;1.70;;;22.80;40.40;;;;;;5000809;28;20032;-74
2021/05/07 12:46:11;;;;;;;3.92;1.77;;;22.60;38.80;;;;;;5000823;28;20029;-74
2021/05/07 12:48:37;;;;;;;3.58;1.55;;;22.50;39.00;;;;;;5001061;28;20033;-74
2021/05/07 12:51:08;;;;;;;3.45;1.50;;;22.30;38.50;;;;;;4988526;28;20032;-74
2021/05/07 12:53:37;;;;;;;4.32;1.95;;;22.10;39.40;;;;;;4999422;28;20022;-74
2021/05/07 12:56:03;;;;;;;5.63;1.50;;;22.10;38.70;;;;;;5000679;28;20023;-73
2021/05/07 12:58:29;;;;;;;6.10;2.30;;;22.00;38.70;;;;;;5000871;28;20022;-74